sensor_id;sensor_type;location;lat;lon;timestamp;pressure;altitude;pressure_sealevel;temperature;humidity
56721;BME280;53183;47.412;18.884;2023-05-02T00:02:12;99285.09;;;13.97;46.83
56721;BME280;53183;47.412;18.884;2023-05-02T00:04:40;99292.41;;;14.06;46.12
56721;BME280;53183;47.412;18.884;2023-05-02T00:07:08;99287.94;;;14.07;46.57
56721;BME280;53183;47.412;18.884;2023-05-02T00:09:35;99282.53;;;14.08;46.15
56721;BME280;53183;47.412;18.884;2023-05-02T00:12:02;99283.87;;;14.14;46.29
56721;BME280;53183;47.412;18.884;2023-05-02T00:14:29;99286.63;;;14.25;45.67
56721;BME280;53183;47.412;18.884;2023-05-02T00:16:56;99287.03;;;14.32;45.45
56721;BME280;53183;47.412;18.884;2023-05-02T00:19:24;99292.81;;;14.26;45.60
56721;BME280;53183;47.412;18.884;2023-05-02T00:21:51;99281.53;;;14.22;46.11
56721;BME280;53183;47.412;18.884;2023-05-02T00:24:19;99283.87;;;14.14;46.11
56721;BME280;53183;47.412;18.884;2023-05-02T00:26:46;99280.75;;;13.96;46.63
56721;BME280;53183;47.412;18.884;2023-05-02T00:29:13;99281.59;;;13.97;46.56
56721;BME280;53183;47.412;18.884;2023-05-02T00:31:40;99281.47;;;13.98;46.70
56721;BME280;53183;47.412;18.884;2023-05-02T00:34:08;99283.19;;;13.99;46.66
56721;BME280;53183;47.412;18.884;2023-05-02T00:36:35;99284.47;;;13.81;47.26
56721;BME280;53183;47.412;18.884;2023-05-02T00:39:03;99283.22;;;13.87;47.10
56721;BME280;53183;47.412;18.884;2023-05-02T00:41:31;99286.94;;;13.84;47.24
56721;BME280;53183;47.412;18.884;2023-05-02T00:43:58;99283.09;;;13.75;47.46
56721;BME280;53183;47.412;18.884;2023-05-02T00:46:25;99284.41;;;13.57;47.98
56721;BME280;53183;47.412;18.884;2023-05-02T00:48:54;99279.72;;;13.73;47.87
56721;BME280;53183;47.412;18.884;2023-05-02T00:51:21;99288.94;;;13.68;48.10
56721;BME280;53183;47.412;18.884;2023-05-02T00:53:49;99288.44;;;13.63;48.33
56721;BME280;53183;47.412;18.884;2023-05-02T00:56:17;99284.91;;;13.62;48.26
56721;BME280;53183;47.412;18.884;2023-05-02T00:58:44;99287.81;;;13.59;48.14
56721;BME280;53183;47.412;18.884;2023-05-02T01:09:33;99290.97;;;13.51;49.19
56721;BME280;53183;47.412;18.884;2023-05-02T01:12:09;99292.91;;;13.49;49.29
56721;BME280;53183;47.412;18.884;2023-05-02T01:14:43;99289.06;;;13.53;49.52
56721;BME280;53183;47.412;18.884;2023-05-02T01:17:13;99282.25;;;13.62;49.24
56721;BME280;53183;47.412;18.884;2023-05-02T01:19:51;99288.44;;;13.63;49.26
56721;BME280;53183;47.412;18.884;2023-05-02T01:22:21;99286.94;;;13.71;49.34
56721;BME280;53183;47.412;18.884;2023-05-02T01:27:27;99287.69;;;13.73;49.49
56721;BME280;53183;47.412;18.884;2023-05-02T01:29:58;99283.22;;;13.74;49.42
56721;BME280;53183;47.412;18.884;2023-05-02T01:32:30;99289.38;;;13.61;49.95
56721;BME280;53183;47.412;18.884;2023-05-02T01:35:00;99279.72;;;13.60;50.15
56721;BME280;53183;47.412;18.884;2023-05-02T01:37:29;99281.41;;;13.49;50.68
56721;BME280;53183;47.412;18.884;2023-05-02T01:39:57;99273.91;;;13.43;50.60
56721;BME280;53183;47.412;18.884;2023-05-02T01:42:28;99273.97;;;13.28;51.36
56721;BME280;53183;47.412;18.884;2023-05-02T01:44:57;99275.78;;;13.41;51.08
56721;BME280;53183;47.412;18.884;2023-05-02T01:47:25;99270.37;;;13.42;51.26
56721;BME280;53183;47.412;18.884;2023-05-02T01:49:54;99277.59;;;13.27;51.83
56721;BME280;53183;47.412;18.884;2023-05-02T01:52:22;99270.47;;;13.28;51.87
56721;BME280;53183;47.412;18.884;2023-05-02T01:54:52;99265.16;;;13.28;52.36
56721;BME280;53183;47.412;18.884;2023-05-02T01:57:20;99275.53;;;13.18;52.68
56721;BME280;53183;47.412;18.884;2023-05-02T01:59:49;99261.66;;;13.27;52.82
56721;BME280;53183;47.412;18.884;2023-05-02T02:02:16;99259.41;;;13.21;52.89
56721;BME280;53183;47.412;18.884;2023-05-02T02:04:46;99262.47;;;13.15;53.43
56721;BME280;53183;47.412;18.884;2023-05-02T02:07:14;99265.22;;;13.01;53.64
56721;BME280;53183;47.412;18.884;2023-05-02T02:09:41;99257.88;;;12.91;54.14
56721;BME280;53183;47.412;18.884;2023-05-02T02:12:28;99256.91;;;12.93;53.88
56721;BME280;53183;47.412;18.884;2023-05-02T02:15:05;99260.59;;;12.77;54.93
56721;BME280;53183;47.412;18.884;2023-05-02T02:17:59;99256.09;;;12.65;55.40
56721;BME280;53183;47.412;18.884;2023-05-02T02:20:28;99253.09;;;12.57;55.71
56721;BME280;53183;47.412;18.884;2023-05-02T02:22:57;99255.47;;;12.61;55.65
56721;BME280;53183;47.412;18.884;2023-05-02T02:25:25;99260.00;;;12.59;55.85
56721;BME280;53183;47.412;18.884;2023-05-02T02:27:53;99254.91;;;12.56;56.47
56721;BME280;53183;47.412;18.884;2023-05-02T02:30:20;99255.34;;;12.63;56.90
56721;BME280;53183;47.412;18.884;2023-05-02T02:32:48;99251.97;;;12.61;57.88
56721;BME280;53183;47.412;18.884;2023-05-02T02:35:15;99255.81;;;12.42;58.56
56721;BME280;53183;47.412;18.884;2023-05-02T02:40:33;99262.31;;;12.24;59.61
56721;BME280;53183;47.412;18.884;2023-05-02T02:43:13;99250.56;;;12.14;60.36
56721;BME280;53183;47.412;18.884;2023-05-02T02:45:56;99251.19;;;12.05;61.02
56721;BME280;53183;47.412;18.884;2023-05-02T02:48:42;99253.03;;;12.17;61.85
56721;BME280;53183;47.412;18.884;2023-05-02T02:56:26;99263.28;;;12.09;63.44
56721;BME280;53183;47.412;18.884;2023-05-02T02:59:01;99259.69;;;12.10;63.72
56721;BME280;53183;47.412;18.884;2023-05-02T03:01:31;99257.75;;;12.26;63.82
56721;BME280;53183;47.412;18.884;2023-05-02T03:04:00;99263.44;;;12.20;63.98
56721;BME280;53183;47.412;18.884;2023-05-02T03:06:29;99262.50;;;12.07;64.46
56721;BME280;53183;47.412;18.884;2023-05-02T03:08:57;99267.16;;;12.03;65.44
56721;BME280;53183;47.412;18.884;2023-05-02T03:11:26;99258.47;;;12.01;66.09
56721;BME280;53183;47.412;18.884;2023-05-02T03:13:56;99263.50;;;11.91;66.21
56721;BME280;53183;47.412;18.884;2023-05-02T03:16:33;99264.03;;;11.82;66.61
56721;BME280;53183;47.412;18.884;2023-05-02T03:19:05;99260.63;;;11.80;67.09
56721;BME280;53183;47.412;18.884;2023-05-02T03:21:33;99272.06;;;11.81;67.36
56721;BME280;53183;47.412;18.884;2023-05-02T03:24:03;99268.34;;;11.85;67.85
56721;BME280;53183;47.412;18.884;2023-05-02T03:26:31;99268.28;;;12.13;67.21
56721;BME280;53183;47.412;18.884;2023-05-02T03:28:59;99267.16;;;12.17;67.04
56721;BME280;53183;47.412;18.884;2023-05-02T03:31:27;99271.41;;;12.06;67.20
56721;BME280;53183;47.412;18.884;2023-05-02T03:33:54;99266.66;;;12.11;67.67
56721;BME280;53183;47.412;18.884;2023-05-02T03:36:22;99267.22;;;12.16;67.54
56721;BME280;53183;47.412;18.884;2023-05-02T03:38:51;99266.53;;;12.27;67.11
56721;BME280;53183;47.412;18.884;2023-05-02T03:41:19;99274.00;;;12.34;67.06
56721;BME280;53183;47.412;18.884;2023-05-02T03:43:48;99273.62;;;12.40;66.89
56721;BME280;53183;47.412;18.884;2023-05-02T03:46:18;99279.47;;;12.46;67.02
56721;BME280;53183;47.412;18.884;2023-05-02T03:48:45;99275.84;;;12.47;66.93
56721;BME280;53183;47.412;18.884;2023-05-02T03:51:13;99273.44;;;12.56;66.64
56721;BME280;53183;47.412;18.884;2023-05-02T03:53:41;99273.94;;;12.76;65.88
56721;BME280;53183;47.412;18.884;2023-05-02T03:56:09;99268.47;;;12.91;65.17
56721;BME280;53183;47.412;18.884;2023-05-02T03:58:37;99274.94;;;12.87;65.52
56721;BME280;53183;47.412;18.884;2023-05-02T04:01:12;99276.75;;;12.87;65.72
56721;BME280;53183;47.412;18.884;2023-05-02T04:03:41;99274.84;;;13.02;65.34
56721;BME280;53183;47.412;18.884;2023-05-02T04:06:09;99281.84;;;13.03;65.29
56721;BME280;53183;47.412;18.884;2023-05-02T04:08:38;99277.97;;;13.21;64.80
56721;BME280;53183;47.412;18.884;2023-05-02T04:11:05;99281.94;;;13.28;64.09
56721;BME280;53183;47.412;18.884;2023-05-02T04:13:33;99280.34;;;13.26;64.36
56721;BME280;53183;47.412;18.884;2023-05-02T04:16:01;99280.12;;;13.29;64.00
56721;BME280;53183;47.412;18.884;2023-05-02T04:18:29;99275.56;;;13.31;64.33
56721;BME280;53183;47.412;18.884;2023-05-02T04:20:57;99287.25;;;13.41;64.06
56721;BME280;53183;47.412;18.884;2023-05-02T04:23:24;99283.56;;;13.56;63.06
56721;BME280;53183;47.412;18.884;2023-05-02T04:25:54;99289.16;;;13.77;61.89
56721;BME280;53183;47.412;18.884;2023-05-02T04:28:23;99287.47;;;13.89;61.53
56721;BME280;53183;47.412;18.884;2023-05-02T04:30:51;99288.59;;;13.98;61.80
56721;BME280;53183;47.412;18.884;2023-05-02T04:33:20;99293.66;;;14.14;60.69
56721;BME280;53183;47.412;18.884;2023-05-02T04:35:47;99294.59;;;14.38;60.02
56721;BME280;53183;47.412;18.884;2023-05-02T04:38:15;99298.06;;;14.51;59.68
56721;BME280;53183;47.412;18.884;2023-05-02T04:40:44;99297.59;;;14.58;59.81
56721;BME280;53183;47.412;18.884;2023-05-02T04:43:12;99297.31;;;14.73;59.17
56721;BME280;53183;47.412;18.884;2023-05-02T04:45:39;99296.94;;;14.91;58.79
56721;BME280;53183;47.412;18.884;2023-05-02T04:48:08;99297.50;;;15.18;57.68
56721;BME280;53183;47.412;18.884;2023-05-02T04:50:36;99302.38;;;15.36;57.02
56721;BME280;53183;47.412;18.884;2023-05-02T04:53:04;99306.78;;;15.48;56.94
56721;BME280;53183;47.412;18.884;2023-05-02T04:55:32;99309.75;;;15.67;55.96
56721;BME280;53183;47.412;18.884;2023-05-02T04:57:59;99316.19;;;15.76;55.41
56721;BME280;53183;47.412;18.884;2023-05-02T05:00:26;99308.31;;;15.97;55.07
56721;BME280;53183;47.412;18.884;2023-05-02T05:02:54;99308.78;;;16.02;54.90
56721;BME280;53183;47.412;18.884;2023-05-02T05:05:21;99316.06;;;16.11;54.09
56721;BME280;53183;47.412;18.884;2023-05-02T05:07:48;99315.81;;;16.14;53.91
56721;BME280;53183;47.412;18.884;2023-05-02T05:10:18;99314.72;;;16.28;53.60
56721;BME280;53183;47.412;18.884;2023-05-02T05:12:46;99322.47;;;16.31;53.84
56721;BME280;53183;47.412;18.884;2023-05-02T05:15:14;99316.50;;;16.50;52.46
56721;BME280;53183;47.412;18.884;2023-05-02T05:17:43;99318.44;;;16.59;52.62
56721;BME280;53183;47.412;18.884;2023-05-02T05:20:15;99321.78;;;16.73;51.94
56721;BME280;53183;47.412;18.884;2023-05-02T05:22:48;99327.12;;;16.73;52.20
56721;BME280;53183;47.412;18.884;2023-05-02T05:25:15;99315.59;;;16.83;52.08
56721;BME280;53183;47.412;18.884;2023-05-02T05:27:43;99322.13;;;16.91;51.44
56721;BME280;53183;47.412;18.884;2023-05-02T05:30:11;99329.41;;;17.21;50.84
56721;BME280;53183;47.412;18.884;2023-05-02T05:32:39;99324.78;;;17.23;50.83
56721;BME280;53183;47.412;18.884;2023-05-02T05:35:07;99328.50;;;17.52;50.33
56721;BME280;53183;47.412;18.884;2023-05-02T05:37:34;99326.38;;;17.88;49.56
56721;BME280;53183;47.412;18.884;2023-05-02T05:40:07;99331.72;;;18.28;47.65
56721;BME280;53183;47.412;18.884;2023-05-02T05:42:35;99334.41;;;18.79;46.92
56721;BME280;53183;47.412;18.884;2023-05-02T05:45:04;99333.59;;;18.97;46.70
56721;BME280;53183;47.412;18.884;2023-05-02T05:47:31;99339.25;;;19.33;45.62
56721;BME280;53183;47.412;18.884;2023-05-02T05:49:59;99331.75;;;19.47;44.76
56721;BME280;53183;47.412;18.884;2023-05-02T05:52:27;99347.38;;;19.61;43.90
56721;BME280;53183;47.412;18.884;2023-05-02T05:54:55;99345.72;;;19.60;44.13
56721;BME280;53183;47.412;18.884;2023-05-02T05:57:23;99342.38;;;19.38;43.91
56721;BME280;53183;47.412;18.884;2023-05-02T05:59:51;99345.16;;;19.47;44.28
56721;BME280;53183;47.412;18.884;2023-05-02T06:02:19;99339.22;;;19.62;44.00
56721;BME280;53183;47.412;18.884;2023-05-02T06:04:46;99339.50;;;20.16;42.68
56721;BME280;53183;47.412;18.884;2023-05-02T06:07:14;99344.53;;;20.29;42.72
56721;BME280;53183;47.412;18.884;2023-05-02T06:09:41;99346.09;;;20.31;42.71
56721;BME280;53183;47.412;18.884;2023-05-02T06:12:09;99346.97;;;20.22;43.15
56721;BME280;53183;47.412;18.884;2023-05-02T06:14:36;99349.09;;;19.81;43.76
56721;BME280;53183;47.412;18.884;2023-05-02T06:17:03;99340.91;;;19.83;43.41
56721;BME280;53183;47.412;18.884;2023-05-02T06:19:32;99338.63;;;19.88;43.39
56721;BME280;53183;47.412;18.884;2023-05-02T06:21:59;99345.41;;;19.82;43.08
56721;BME280;53183;47.412;18.884;2023-05-02T06:24:26;99349.66;;;19.85;43.22
56721;BME280;53183;47.412;18.884;2023-05-02T06:26:53;99347.28;;;19.53;44.22
56721;BME280;53183;47.412;18.884;2023-05-02T06:29:20;99342.03;;;19.51;44.16
56721;BME280;53183;47.412;18.884;2023-05-02T06:31:48;99350.94;;;19.61;43.98
56721;BME280;53183;47.412;18.884;2023-05-02T06:34:17;99344.87;;;19.69;43.09
56721;BME280;53183;47.412;18.884;2023-05-02T06:36:44;99349.50;;;19.77;44.24
56721;BME280;53183;47.412;18.884;2023-05-02T06:39:11;99347.59;;;20.06;43.52
56721;BME280;53183;47.412;18.884;2023-05-02T06:41:39;99347.72;;;20.42;43.22
56721;BME280;53183;47.412;18.884;2023-05-02T06:44:11;99360.69;;;20.56;42.34
56721;BME280;53183;47.412;18.884;2023-05-02T06:46:39;99361.34;;;20.68;42.30
56721;BME280;53183;47.412;18.884;2023-05-02T06:49:06;99365.03;;;20.67;41.76
56721;BME280;53183;47.412;18.884;2023-05-02T06:51:33;99360.81;;;20.82;41.51
56721;BME280;53183;47.412;18.884;2023-05-02T06:54:00;99374.91;;;21.30;41.25
56721;BME280;53183;47.412;18.884;2023-05-02T06:56:27;99364.56;;;21.35;40.72
56721;BME280;53183;47.412;18.884;2023-05-02T06:58:55;99363.22;;;21.03;41.62
56721;BME280;53183;47.412;18.884;2023-05-02T07:01:22;99365.91;;;21.03;41.75
56721;BME280;53183;47.412;18.884;2023-05-02T07:03:49;99362.22;;;20.87;42.29
56721;BME280;53183;47.412;18.884;2023-05-02T07:06:17;99363.47;;;21.10;41.74
56721;BME280;53183;47.412;18.884;2023-05-02T07:08:44;99364.16;;;21.30;41.85
56721;BME280;53183;47.412;18.884;2023-05-02T07:11:12;99364.25;;;21.38;41.64
56721;BME280;53183;47.412;18.884;2023-05-02T07:13:39;99356.44;;;21.97;40.50
56721;BME280;53183;47.412;18.884;2023-05-02T07:16:06;99354.69;;;22.14;40.02
56721;BME280;53183;47.412;18.884;2023-05-02T07:18:33;99355.25;;;22.94;38.23
56721;BME280;53183;47.412;18.884;2023-05-02T07:21:01;99357.31;;;23.49;37.87
56721;BME280;53183;47.412;18.884;2023-05-02T07:23:28;99357.97;;;23.92;36.31
56721;BME280;53183;47.412;18.884;2023-05-02T07:25:55;99356.00;;;23.78;36.22
56721;BME280;53183;47.412;18.884;2023-05-02T07:28:22;99358.16;;;23.99;36.10
56721;BME280;53183;47.412;18.884;2023-05-02T07:30:50;99359.41;;;24.44;36.94
56721;BME280;53183;47.412;18.884;2023-05-02T07:33:18;99365.75;;;24.90;35.01
56721;BME280;53183;47.412;18.884;2023-05-02T07:35:45;99365.31;;;25.10;34.29
56721;BME280;53183;47.412;18.884;2023-05-02T07:38:12;99359.09;;;24.78;34.28
56721;BME280;53183;47.412;18.884;2023-05-02T07:40:40;99365.31;;;24.31;35.18
56721;BME280;53183;47.412;18.884;2023-05-02T07:43:08;99368.44;;;24.03;35.78
56721;BME280;53183;47.412;18.884;2023-05-02T07:45:37;99369.44;;;23.04;36.97
56721;BME280;53183;47.412;18.884;2023-05-02T07:48:04;99367.22;;;22.57;36.66
56721;BME280;53183;47.412;18.884;2023-05-02T07:50:32;99364.47;;;22.91;37.35
56721;BME280;53183;47.412;18.884;2023-05-02T07:52:59;99361.37;;;23.53;36.42
56721;BME280;53183;47.412;18.884;2023-05-02T07:55:26;99362.81;;;24.29;35.09
56721;BME280;53183;47.412;18.884;2023-05-02T07:57:53;99367.56;;;25.29;33.63
56721;BME280;53183;47.412;18.884;2023-05-02T08:00:22;99367.28;;;25.24;33.10
56721;BME280;53183;47.412;18.884;2023-05-02T08:02:49;99362.56;;;24.55;34.62
56721;BME280;53183;47.412;18.884;2023-05-02T08:05:16;99348.72;;;24.50;35.05
56721;BME280;53183;47.412;18.884;2023-05-02T08:07:44;99357.03;;;24.49;35.79
56721;BME280;53183;47.412;18.884;2023-05-02T08:10:12;99362.16;;;25.29;34.46
56721;BME280;53183;47.412;18.884;2023-05-02T08:12:41;99368.56;;;25.05;33.52
56721;BME280;53183;47.412;18.884;2023-05-02T08:15:10;99365.72;;;25.30;33.46
56721;BME280;53183;47.412;18.884;2023-05-02T08:17:39;99372.38;;;25.65;34.47
56721;BME280;53183;47.412;18.884;2023-05-02T08:20:06;99376.41;;;25.46;33.94
56721;BME280;53183;47.412;18.884;2023-05-02T08:22:33;99385.66;;;25.29;33.55
56721;BME280;53183;47.412;18.884;2023-05-02T08:25:01;99374.06;;;24.49;34.88
56721;BME280;53183;47.412;18.884;2023-05-02T08:27:28;99367.75;;;24.09;35.68
56721;BME280;53183;47.412;18.884;2023-05-02T08:30:01;99370.94;;;24.05;35.49
56721;BME280;53183;47.412;18.884;2023-05-02T08:32:31;99375.06;;;23.68;36.49
56721;BME280;53183;47.412;18.884;2023-05-02T08:34:58;99372.81;;;23.39;36.84
56721;BME280;53183;47.412;18.884;2023-05-02T08:37:25;99370.47;;;23.28;39.01
56721;BME280;53183;47.412;18.884;2023-05-02T08:39:52;99362.38;;;23.28;37.36
56721;BME280;53183;47.412;18.884;2023-05-02T08:42:20;99367.22;;;23.00;41.50
56721;BME280;53183;47.412;18.884;2023-05-02T08:44:48;99358.69;;;23.53;41.42
56721;BME280;53183;47.412;18.884;2023-05-02T08:47:17;99358.34;;;22.73;38.66
56721;BME280;53183;47.412;18.884;2023-05-02T08:49:45;99352.28;;;23.30;40.53
56721;BME280;53183;47.412;18.884;2023-05-02T08:52:14;99355.50;;;23.74;36.96
56721;BME280;53183;47.412;18.884;2023-05-02T08:54:43;99358.78;;;24.25;36.81
56721;BME280;53183;47.412;18.884;2023-05-02T08:57:11;99357.31;;;24.54;36.64
56721;BME280;53183;47.412;18.884;2023-05-02T08:59:38;99350.81;;;24.32;37.29
56721;BME280;53183;47.412;18.884;2023-05-02T09:04:53;99353.09;;;24.60;35.60
56721;BME280;53183;47.412;18.884;2023-05-02T09:07:22;99337.63;;;24.37;35.88
56721;BME280;53183;47.412;18.884;2023-05-02T09:09:49;99348.38;;;24.62;35.71
56721;BME280;53183;47.412;18.884;2023-05-02T09:12:16;99341.84;;;24.31;36.97
56721;BME280;53183;47.412;18.884;2023-05-02T09:14:43;99341.78;;;24.00;36.97
56721;BME280;53183;47.412;18.884;2023-05-02T09:17:11;99339.28;;;23.99;37.24
56721;BME280;53183;47.412;18.884;2023-05-02T09:19:38;99340.13;;;23.83;37.02
56721;BME280;53183;47.412;18.884;2023-05-02T09:22:05;99341.06;;;24.23;36.62
56721;BME280;53183;47.412;18.884;2023-05-02T09:24:33;99343.72;;;24.31;35.58
56721;BME280;53183;47.412;18.884;2023-05-02T09:27:02;99340.16;;;24.30;36.00
56721;BME280;53183;47.412;18.884;2023-05-02T09:29:31;99335.72;;;24.85;37.29
56721;BME280;53183;47.412;18.884;2023-05-02T09:32:04;99340.88;;;25.26;36.06
56721;BME280;53183;47.412;18.884;2023-05-02T09:34:32;99344.53;;;25.33;35.03
56721;BME280;53183;47.412;18.884;2023-05-02T09:37:00;99337.97;;;25.04;36.24
56721;BME280;53183;47.412;18.884;2023-05-02T09:39:28;99346.66;;;24.61;35.83
56721;BME280;53183;47.412;18.884;2023-05-02T09:41:56;99341.47;;;24.51;35.45
56721;BME280;53183;47.412;18.884;2023-05-02T09:44:25;99333.22;;;24.44;35.56
56721;BME280;53183;47.412;18.884;2023-05-02T09:46:54;99339.31;;;24.46;36.18
56721;BME280;53183;47.412;18.884;2023-05-02T09:49:42;99350.63;;;24.81;36.47
56721;BME280;53183;47.412;18.884;2023-05-02T09:52:16;99339.38;;;24.69;34.81
56721;BME280;53183;47.412;18.884;2023-05-02T09:54:44;99338.94;;;24.80;36.23
56721;BME280;53183;47.412;18.884;2023-05-02T09:57:12;99344.22;;;24.74;34.13
56721;BME280;53183;47.412;18.884;2023-05-02T09:59:40;99337.13;;;24.33;36.54
56721;BME280;53183;47.412;18.884;2023-05-02T10:02:08;99351.00;;;24.22;36.78
56721;BME280;53183;47.412;18.884;2023-05-02T10:04:38;99349.12;;;24.31;35.18
56721;BME280;53183;47.412;18.884;2023-05-02T10:07:06;99336.31;;;24.25;35.09
56721;BME280;53183;47.412;18.884;2023-05-02T10:09:41;99340.88;;;24.72;35.13
56721;BME280;53183;47.412;18.884;2023-05-02T10:12:13;99344.53;;;24.79;34.99
56721;BME280;53183;47.412;18.884;2023-05-02T10:14:48;99342.81;;;24.86;35.29
56721;BME280;53183;47.412;18.884;2023-05-02T10:17:22;99339.41;;;24.92;34.84
56721;BME280;53183;47.412;18.884;2023-05-02T10:19:59;99334.91;;;24.85;35.77
56721;BME280;53183;47.412;18.884;2023-05-02T10:22:27;99334.06;;;25.07;34.69
56721;BME280;53183;47.412;18.884;2023-05-02T10:24:56;99334.62;;;24.71;35.64
56721;BME280;53183;47.412;18.884;2023-05-02T10:27:26;99334.84;;;24.62;35.78
56721;BME280;53183;47.412;18.884;2023-05-02T10:29:54;99335.12;;;24.75;36.50
56721;BME280;53183;47.412;18.884;2023-05-02T10:32:26;99339.06;;;24.87;36.02
56721;BME280;53183;47.412;18.884;2023-05-02T10:34:56;99329.41;;;25.24;34.60
56721;BME280;53183;47.412;18.884;2023-05-02T10:37:26;99324.66;;;25.26;34.90
56721;BME280;53183;47.412;18.884;2023-05-02T10:39:55;99326.59;;;25.40;34.38
56721;BME280;53183;47.412;18.884;2023-05-02T10:42:23;99330.97;;;25.41;34.40
56721;BME280;53183;47.412;18.884;2023-05-02T10:44:50;99330.63;;;24.90;34.77
56721;BME280;53183;47.412;18.884;2023-05-02T10:49:53;99338.19;;;24.64;35.73
56721;BME280;53183;47.412;18.884;2023-05-02T10:52:25;99330.41;;;24.69;36.05
56721;BME280;53183;47.412;18.884;2023-05-02T10:55:16;99329.28;;;24.86;35.58
56721;BME280;53183;47.412;18.884;2023-05-02T11:00:34;99329.66;;;25.06;34.84
56721;BME280;53183;47.412;18.884;2023-05-02T11:03:01;99327.12;;;25.13;35.21
56721;BME280;53183;47.412;18.884;2023-05-02T11:05:28;99322.87;;;25.18;34.87
56721;BME280;53183;47.412;18.884;2023-05-02T11:10:42;99315.59;;;25.19;36.27
56721;BME280;53183;47.412;18.884;2023-05-02T11:13:12;99310.66;;;25.22;34.98
56721;BME280;53183;47.412;18.884;2023-05-02T11:18:07;99301.94;;;25.35;35.39
56721;BME280;53183;47.412;18.884;2023-05-02T11:20:37;99300.69;;;25.61;34.76
56721;BME280;53183;47.412;18.884;2023-05-02T11:25:46;99303.50;;;25.67;33.88
56721;BME280;53183;47.412;18.884;2023-05-02T11:31:00;99296.66;;;25.57;34.54
56721;BME280;53183;47.412;18.884;2023-05-02T11:33:28;99292.41;;;25.39;35.70
56721;BME280;53183;47.412;18.884;2023-05-02T11:35:55;99289.81;;;25.31;34.69
56721;BME280;53183;47.412;18.884;2023-05-02T11:38:27;99291.25;;;25.19;35.32
56721;BME280;53183;47.412;18.884;2023-05-02T11:41:00;99298.97;;;24.99;34.96
56721;BME280;53183;47.412;18.884;2023-05-02T11:43:30;99295.84;;;25.10;33.45
56721;BME280;53183;47.412;18.884;2023-05-02T11:45:59;99299.56;;;25.09;33.09
56721;BME280;53183;47.412;18.884;2023-05-02T11:48:29;99300.16;;;25.27;32.40
56721;BME280;53183;47.412;18.884;2023-05-02T11:50:58;99293.31;;;25.55;32.02
56721;BME280;53183;47.412;18.884;2023-05-02T11:53:29;99288.38;;;25.73;31.22
56721;BME280;53183;47.412;18.884;2023-05-02T11:56:01;99285.25;;;25.84;31.79
56721;BME280;53183;47.412;18.884;2023-05-02T11:58:30;99276.28;;;25.99;31.79
56721;BME280;53183;47.412;18.884;2023-05-02T12:01:14;99282.91;;;26.11;31.25
56721;BME280;53183;47.412;18.884;2023-05-02T12:03:42;99295.53;;;25.66;31.76
56721;BME280;53183;47.412;18.884;2023-05-02T12:06:14;99284.00;;;25.72;30.98
56721;BME280;53183;47.412;18.884;2023-05-02T12:08:44;99286.78;;;25.79;31.20
56721;BME280;53183;47.412;18.884;2023-05-02T12:11:13;99285.88;;;25.86;30.85
56721;BME280;53183;47.412;18.884;2023-05-02T12:13:45;99281.16;;;26.03;31.77
56721;BME280;53183;47.412;18.884;2023-05-02T12:16:14;99283.66;;;26.19;32.31
56721;BME280;53183;47.412;18.884;2023-05-02T12:18:41;99278.16;;;25.98;31.24
56721;BME280;53183;47.412;18.884;2023-05-02T12:21:09;99285.91;;;26.01;31.28
56721;BME280;53183;47.412;18.884;2023-05-02T12:23:38;99283.69;;;25.90;31.46
56721;BME280;53183;47.412;18.884;2023-05-02T12:26:22;99282.31;;;25.71;31.55
56721;BME280;53183;47.412;18.884;2023-05-02T12:28:53;99288.28;;;25.29;31.51
56721;BME280;53183;47.412;18.884;2023-05-02T12:31:24;99284.78;;;25.43;31.12
56721;BME280;53183;47.412;18.884;2023-05-02T12:33:53;99281.19;;;25.50;31.79
56721;BME280;53183;47.412;18.884;2023-05-02T12:36:23;99283.41;;;25.62;31.48
56721;BME280;53183;47.412;18.884;2023-05-02T12:38:52;99275.88;;;25.57;33.63
56721;BME280;53183;47.412;18.884;2023-05-02T12:43:57;99286.88;;;25.18;33.76
56721;BME280;53183;47.412;18.884;2023-05-02T12:46:26;99282.22;;;25.26;32.56
56721;BME280;53183;47.412;18.884;2023-05-02T12:49:05;99281.38;;;25.26;33.13
56721;BME280;53183;47.412;18.884;2023-05-02T12:51:34;99280.84;;;25.08;33.31
56721;BME280;53183;47.412;18.884;2023-05-02T12:54:02;99277.91;;;25.17;32.30
56721;BME280;53183;47.412;18.884;2023-05-02T12:56:38;99273.84;;;25.36;32.58
56721;BME280;53183;47.412;18.884;2023-05-02T12:59:05;99274.53;;;25.53;32.45
56721;BME280;53183;47.412;18.884;2023-05-02T13:01:34;99277.34;;;25.60;32.10
56721;BME280;53183;47.412;18.884;2023-05-02T13:04:02;99268.00;;;25.62;32.37
56721;BME280;53183;47.412;18.884;2023-05-02T13:06:29;99265.00;;;25.80;31.79
56721;BME280;53183;47.412;18.884;2023-05-02T13:08:57;99263.13;;;25.81;31.23
56721;BME280;53183;47.412;18.884;2023-05-02T13:11:26;99269.06;;;25.76;30.59
56721;BME280;53183;47.412;18.884;2023-05-02T13:13:54;99268.81;;;25.86;30.98
56721;BME280;53183;47.412;18.884;2023-05-02T13:16:21;99263.75;;;25.83;30.75
56721;BME280;53183;47.412;18.884;2023-05-02T13:18:48;99256.00;;;25.65;30.79
56721;BME280;53183;47.412;18.884;2023-05-02T13:21:16;99265.22;;;25.56;30.83
56721;BME280;53183;47.412;18.884;2023-05-02T13:23:46;99252.41;;;25.35;31.12
56721;BME280;53183;47.412;18.884;2023-05-02T13:26:13;99253.47;;;25.63;31.32
56721;BME280;53183;47.412;18.884;2023-05-02T13:28:41;99250.00;;;25.69;30.69
56721;BME280;53183;47.412;18.884;2023-05-02T13:31:08;99250.06;;;25.84;30.87
56721;BME280;53183;47.412;18.884;2023-05-02T13:33:35;99247.28;;;25.69;31.43
56721;BME280;53183;47.412;18.884;2023-05-02T13:36:02;99252.66;;;25.92;30.71
56721;BME280;53183;47.412;18.884;2023-05-02T13:38:29;99254.78;;;25.67;31.25
56721;BME280;53183;47.412;18.884;2023-05-02T13:40:57;99252.34;;;25.58;31.51